Lexington, Virginia
Current Conditions -  °F | °C
As of 1:35 PM on Thursday 29 Jan 2015 (Local Time) from KHSP Reporting Station
Unknown Precip Unknown Precip  
Wind Chill: 23°   Ceiling: 4700
Heat Index: 32°   Visibility: 7mi
Dew Point: 26°   Wind: 12mph
Humidity: 78%   Direction: 200°SSW
Pressure: 29.93"   Gusts: NA
Location:  37.79°N, 79.44°W
Report Text: KHSP 291835Z AUTO 20010KT 7SM UP SCT035 OVC047 00/M03 A2993 RMK AO2 P0001 T00001034
Loading
Personal Weather Stations






























Interactive Weather Map New forecast layout! Learn more

10-Day Weather Forecast

Advertisements
Track Severe Weather on mobile